sensor_id;sensor_type;location;lat;lon;timestamp;temperature;humidity
8067;DHT22;4076;48.076;9.118;2023-01-10T00:00:50;3.00;99.90
8067;DHT22;4076;48.076;9.118;2023-01-10T00:03:16;3.00;99.90
8067;DHT22;4076;48.076;9.118;2023-01-10T00:05:42;3.00;99.90
8067;DHT22;4076;48.076;9.118;2023-01-10T00:08:09;3.00;99.90
8067;DHT22;4076;48.076;9.118;2023-01-10T00:10:35;3.10;99.90
8067;DHT22;4076;48.076;9.118;2023-01-10T00:13:01;3.10;99.90
8067;DHT22;4076;48.076;9.118;2023-01-10T00:15:45;3.10;99.90
8067;DHT22;4076;48.076;9.118;2023-01-10T00:18:11;3.10;99.90
8067;DHT22;4076;48.076;9.118;2023-01-10T00:20:37;3.10;99.90
8067;DHT22;4076;48.076;9.118;2023-01-10T00:23:02;3.10;99.90
8067;DHT22;4076;48.076;9.118;2023-01-10T00:25:29;3.10;99.90
8067;DHT22;4076;48.076;9.118;2023-01-10T00:27:55;3.10;99.90
8067;DHT22;4076;48.076;9.118;2023-01-10T00:30:37;3.10;99.90
8067;DHT22;4076;48.076;9.118;2023-01-10T00:33:03;3.10;99.90
8067;DHT22;4076;48.076;9.118;2023-01-10T00:35:29;3.10;99.90
8067;DHT22;4076;48.076;9.118;2023-01-10T00:37:55;3.10;99.90
8067;DHT22;4076;48.076;9.118;2023-01-10T00:40:25;3.20;99.90
8067;DHT22;4076;48.076;9.118;2023-01-10T00:42:51;3.10;99.90
8067;DHT22;4076;48.076;9.118;2023-01-10T00:45:36;3.10;99.90
8067;DHT22;4076;48.076;9.118;2023-01-10T00:48:01;3.10;99.90
8067;DHT22;4076;48.076;9.118;2023-01-10T00:50:27;3.10;99.90
8067;DHT22;4076;48.076;9.118;2023-01-10T00:52:52;3.10;99.90
8067;DHT22;4076;48.076;9.118;2023-01-10T00:55:18;3.10;99.90
8067;DHT22;4076;48.076;9.118;2023-01-10T00:57:43;3.10;99.90
8067;DHT22;4076;48.076;9.118;2023-01-10T01:00:09;3.10;99.90
8067;DHT22;4076;48.076;9.118;2023-01-10T01:02:36;3.20;99.90
8067;DHT22;4076;48.076;9.118;2023-01-10T01:05:02;3.10;99.90
8067;DHT22;4076;48.076;9.118;2023-01-10T01:07:28;3.10;99.90
8067;DHT22;4076;48.076;9.118;2023-01-10T01:09:54;3.10;99.90
8067;DHT22;4076;48.076;9.118;2023-01-10T01:12:38;3.00;99.90
8067;DHT22;4076;48.076;9.118;2023-01-10T01:15:04;3.00;99.90
8067;DHT22;4076;48.076;9.118;2023-01-10T01:17:30;2.90;99.90
8067;DHT22;4076;48.076;9.118;2023-01-10T01:19:55;2.90;99.90
8067;DHT22;4076;48.076;9.118;2023-01-10T01:22:21;2.80;99.90
8067;DHT22;4076;48.076;9.118;2023-01-10T01:24:47;2.90;99.90
8067;DHT22;4076;48.076;9.118;2023-01-10T01:27:12;2.80;99.90
8067;DHT22;4076;48.076;9.118;2023-01-10T01:29:38;2.80;99.90
8067;DHT22;4076;48.076;9.118;2023-01-10T01:32:03;2.90;99.90
8067;DHT22;4076;48.076;9.118;2023-01-10T01:34:29;2.90;99.90
8067;DHT22;4076;48.076;9.118;2023-01-10T01:36:54;2.90;99.90
8067;DHT22;4076;48.076;9.118;2023-01-10T01:39:22;3.00;99.90
8067;DHT22;4076;48.076;9.118;2023-01-10T01:41:47;2.90;99.90
8067;DHT22;4076;48.076;9.118;2023-01-10T01:44:23;3.00;99.90
8067;DHT22;4076;48.076;9.118;2023-01-10T01:47:29;3.00;99.90
8067;DHT22;4076;48.076;9.118;2023-01-10T01:49:47;2.90;99.90
8067;DHT22;4076;48.076;9.118;2023-01-10T01:52:27;2.90;99.90
8067;DHT22;4076;48.076;9.118;2023-01-10T01:54:57;3.00;99.90
8067;DHT22;4076;48.076;9.118;2023-01-10T01:57:25;3.00;99.90
8067;DHT22;4076;48.076;9.118;2023-01-10T01:59:53;3.10;99.90
8067;DHT22;4076;48.076;9.118;2023-01-10T02:02:27;3.10;99.90
8067;DHT22;4076;48.076;9.118;2023-01-10T02:04:57;3.10;99.90
8067;DHT22;4076;48.076;9.118;2023-01-10T02:07:25;3.20;99.90
8067;DHT22;4076;48.076;9.118;2023-01-10T02:09:56;3.10;99.90
8067;DHT22;4076;48.076;9.118;2023-01-10T02:12:24;3.10;99.90
8067;DHT22;4076;48.076;9.118;2023-01-10T02:14:51;3.20;99.90
8067;DHT22;4076;48.076;9.118;2023-01-10T02:17:18;3.20;99.90
8067;DHT22;4076;48.076;9.118;2023-01-10T02:33:16;3.30;99.90
8067;DHT22;4076;48.076;9.118;2023-01-10T02:35:47;3.20;99.90
8067;DHT22;4076;48.076;9.118;2023-01-10T02:41:28;3.30;99.90
8067;DHT22;4076;48.076;9.118;2023-01-10T02:44:01;3.30;99.90
8067;DHT22;4076;48.076;9.118;2023-01-10T02:46:30;3.30;99.90
8067;DHT22;4076;48.076;9.118;2023-01-10T02:48:56;3.40;99.90
8067;DHT22;4076;48.076;9.118;2023-01-10T02:51:24;3.40;99.90
8067;DHT22;4076;48.076;9.118;2023-01-10T02:59:05;3.40;99.90
8067;DHT22;4076;48.076;9.118;2023-01-10T03:08:13;3.40;99.90
8067;DHT22;4076;48.076;9.118;2023-01-10T03:10:45;3.40;99.90
8067;DHT22;4076;48.076;9.118;2023-01-10T03:13:18;3.40;99.90
8067;DHT22;4076;48.076;9.118;2023-01-10T03:15:46;3.40;99.90
8067;DHT22;4076;48.076;9.118;2023-01-10T03:18:37;3.40;99.90
8067;DHT22;4076;48.076;9.118;2023-01-10T03:21:03;3.30;99.90
8067;DHT22;4076;48.076;9.118;2023-01-10T03:23:32;3.30;99.90
8067;DHT22;4076;48.076;9.118;2023-01-10T03:25:59;3.30;99.90
8067;DHT22;4076;48.076;9.118;2023-01-10T03:28:31;3.30;99.90
8067;DHT22;4076;48.076;9.118;2023-01-10T03:31:10;3.30;99.90
8067;DHT22;4076;48.076;9.118;2023-01-10T03:33:38;3.40;99.90
8067;DHT22;4076;48.076;9.118;2023-01-10T03:39:09;3.30;99.90
8067;DHT22;4076;48.076;9.118;2023-01-10T03:47:37;3.40;99.90
8067;DHT22;4076;48.076;9.118;2023-01-10T03:50:07;3.30;99.90
8067;DHT22;4076;48.076;9.118;2023-01-10T03:52:35;3.20;99.90
8067;DHT22;4076;48.076;9.118;2023-01-10T03:55:02;3.30;99.90
8067;DHT22;4076;48.076;9.118;2023-01-10T03:57:29;3.20;99.90
8067;DHT22;4076;48.076;9.118;2023-01-10T03:59:56;3.20;99.90
8067;DHT22;4076;48.076;9.118;2023-01-10T04:02:28;3.20;99.90
8067;DHT22;4076;48.076;9.118;2023-01-10T04:04:55;3.20;99.90
8067;DHT22;4076;48.076;9.118;2023-01-10T04:07:21;3.20;99.90
8067;DHT22;4076;48.076;9.118;2023-01-10T04:09:47;3.20;99.90
8067;DHT22;4076;48.076;9.118;2023-01-10T04:12:13;3.20;99.90
8067;DHT22;4076;48.076;9.118;2023-01-10T04:14:39;3.20;99.90
8067;DHT22;4076;48.076;9.118;2023-01-10T04:17:04;3.20;99.90
8067;DHT22;4076;48.076;9.118;2023-01-10T04:19:30;3.30;99.90
8067;DHT22;4076;48.076;9.118;2023-01-10T04:21:56;3.20;99.90
8067;DHT22;4076;48.076;9.118;2023-01-10T04:24:21;3.20;99.90
8067;DHT22;4076;48.076;9.118;2023-01-10T04:26:47;3.20;99.90
8067;DHT22;4076;48.076;9.118;2023-01-10T04:29:13;3.20;99.90
8067;DHT22;4076;48.076;9.118;2023-01-10T04:31:39;3.20;99.90
8067;DHT22;4076;48.076;9.118;2023-01-10T04:34:05;3.20;99.90
8067;DHT22;4076;48.076;9.118;2023-01-10T04:36:31;3.20;99.90
8067;DHT22;4076;48.076;9.118;2023-01-10T04:38:57;3.20;99.90
8067;DHT22;4076;48.076;9.118;2023-01-10T04:41:22;3.20;99.90
8067;DHT22;4076;48.076;9.118;2023-01-10T04:43:48;3.20;99.90
8067;DHT22;4076;48.076;9.118;2023-01-10T04:46:14;3.20;99.90
8067;DHT22;4076;48.076;9.118;2023-01-10T04:48:40;3.20;99.90
8067;DHT22;4076;48.076;9.118;2023-01-10T04:51:06;3.20;99.90
8067;DHT22;4076;48.076;9.118;2023-01-10T04:53:31;3.20;99.90
8067;DHT22;4076;48.076;9.118;2023-01-10T04:56:05;3.20;99.90
8067;DHT22;4076;48.076;9.118;2023-01-10T04:58:35;3.20;99.90
8067;DHT22;4076;48.076;9.118;2023-01-10T05:01:13;3.10;99.90
8067;DHT22;4076;48.076;9.118;2023-01-10T05:03:39;3.10;99.90
8067;DHT22;4076;48.076;9.118;2023-01-10T05:06:05;3.10;99.90
8067;DHT22;4076;48.076;9.118;2023-01-10T05:08:31;3.10;99.90
8067;DHT22;4076;48.076;9.118;2023-01-10T05:10:57;3.10;99.90
8067;DHT22;4076;48.076;9.118;2023-01-10T05:13:22;3.10;99.90
8067;DHT22;4076;48.076;9.118;2023-01-10T05:15:52;3.10;99.90
8067;DHT22;4076;48.076;9.118;2023-01-10T05:18:17;3.10;99.90
8067;DHT22;4076;48.076;9.118;2023-01-10T05:20:43;3.10;99.90
8067;DHT22;4076;48.076;9.118;2023-01-10T05:23:09;3.10;99.90
8067;DHT22;4076;48.076;9.118;2023-01-10T05:25:34;3.10;99.90
8067;DHT22;4076;48.076;9.118;2023-01-10T05:28:00;3.10;99.90
8067;DHT22;4076;48.076;9.118;2023-01-10T05:30:25;3.00;99.90
8067;DHT22;4076;48.076;9.118;2023-01-10T05:32:51;3.00;99.90
8067;DHT22;4076;48.076;9.118;2023-01-10T05:35:16;2.90;99.90
8067;DHT22;4076;48.076;9.118;2023-01-10T05:37:42;2.80;99.90
8067;DHT22;4076;48.076;9.118;2023-01-10T05:40:08;2.70;99.90
8067;DHT22;4076;48.076;9.118;2023-01-10T05:42:34;2.50;99.90
8067;DHT22;4076;48.076;9.118;2023-01-10T05:45:00;2.50;99.90
8067;DHT22;4076;48.076;9.118;2023-01-10T05:47:25;2.50;99.90
8067;DHT22;4076;48.076;9.118;2023-01-10T05:49:51;2.50;99.90
8067;DHT22;4076;48.076;9.118;2023-01-10T05:52:17;2.50;99.90
8067;DHT22;4076;48.076;9.118;2023-01-10T05:54:42;2.50;99.90
8067;DHT22;4076;48.076;9.118;2023-01-10T05:57:09;2.50;99.90
8067;DHT22;4076;48.076;9.118;2023-01-10T05:59:35;2.50;99.90
8067;DHT22;4076;48.076;9.118;2023-01-10T06:02:00;2.50;99.90
8067;DHT22;4076;48.076;9.118;2023-01-10T06:04:26;2.50;99.90
8067;DHT22;4076;48.076;9.118;2023-01-10T06:06:51;2.50;99.90
8067;DHT22;4076;48.076;9.118;2023-01-10T06:09:17;2.50;99.90
8067;DHT22;4076;48.076;9.118;2023-01-10T06:11:42;2.50;99.90
8067;DHT22;4076;48.076;9.118;2023-01-10T06:14:08;2.50;99.90
8067;DHT22;4076;48.076;9.118;2023-01-10T06:16:34;2.50;99.90
8067;DHT22;4076;48.076;9.118;2023-01-10T06:19:00;2.50;99.90
8067;DHT22;4076;48.076;9.118;2023-01-10T06:21:25;2.50;99.90
8067;DHT22;4076;48.076;9.118;2023-01-10T06:23:51;2.40;99.90
8067;DHT22;4076;48.076;9.118;2023-01-10T06:26:16;2.50;99.90
8067;DHT22;4076;48.076;9.118;2023-01-10T06:28:43;2.40;99.90
8067;DHT22;4076;48.076;9.118;2023-01-10T06:31:09;2.50;99.90
8067;DHT22;4076;48.076;9.118;2023-01-10T06:33:34;2.50;99.90
8067;DHT22;4076;48.076;9.118;2023-01-10T06:36:01;2.50;99.90
8067;DHT22;4076;48.076;9.118;2023-01-10T06:38:27;2.50;99.90
8067;DHT22;4076;48.076;9.118;2023-01-10T06:40:52;2.50;99.90
8067;DHT22;4076;48.076;9.118;2023-01-10T06:43:18;2.50;99.90
8067;DHT22;4076;48.076;9.118;2023-01-10T06:45:43;2.60;99.90
8067;DHT22;4076;48.076;9.118;2023-01-10T06:48:09;2.60;99.90
8067;DHT22;4076;48.076;9.118;2023-01-10T06:50:34;2.60;99.90
8067;DHT22;4076;48.076;9.118;2023-01-10T06:53:02;2.60;99.90
8067;DHT22;4076;48.076;9.118;2023-01-10T06:55:28;2.60;99.90
8067;DHT22;4076;48.076;9.118;2023-01-10T06:57:59;2.60;99.90
8067;DHT22;4076;48.076;9.118;2023-01-10T07:00:26;2.50;99.90
8067;DHT22;4076;48.076;9.118;2023-01-10T07:02:52;2.50;99.90
8067;DHT22;4076;48.076;9.118;2023-01-10T07:05:19;2.50;99.90
8067;DHT22;4076;48.076;9.118;2023-01-10T07:07:45;2.40;99.90
8067;DHT22;4076;48.076;9.118;2023-01-10T07:10:11;2.40;99.90
8067;DHT22;4076;48.076;9.118;2023-01-10T07:12:36;2.40;99.90
8067;DHT22;4076;48.076;9.118;2023-01-10T07:15:02;2.40;99.90
8067;DHT22;4076;48.076;9.118;2023-01-10T07:17:29;2.40;99.90
8067;DHT22;4076;48.076;9.118;2023-01-10T07:19:54;2.40;99.90
8067;DHT22;4076;48.076;9.118;2023-01-10T07:22:20;2.40;99.90
8067;DHT22;4076;48.076;9.118;2023-01-10T07:24:45;2.40;99.90
8067;DHT22;4076;48.076;9.118;2023-01-10T07:27:11;2.40;99.90
8067;DHT22;4076;48.076;9.118;2023-01-10T07:29:37;2.50;99.90
8067;DHT22;4076;48.076;9.118;2023-01-10T07:32:02;2.60;99.90
8067;DHT22;4076;48.076;9.118;2023-01-10T07:34:28;2.60;99.90
8067;DHT22;4076;48.076;9.118;2023-01-10T07:36:54;2.60;99.90
8067;DHT22;4076;48.076;9.118;2023-01-10T07:39:19;2.60;99.90
8067;DHT22;4076;48.076;9.118;2023-01-10T07:41:48;2.70;99.90
8067;DHT22;4076;48.076;9.118;2023-01-10T07:44:15;2.70;99.90
8067;DHT22;4076;48.076;9.118;2023-01-10T07:46:41;2.90;99.90
8067;DHT22;4076;48.076;9.118;2023-01-10T07:49:06;2.80;99.90
8067;DHT22;4076;48.076;9.118;2023-01-10T07:51:32;2.80;99.90
8067;DHT22;4076;48.076;9.118;2023-01-10T07:53:58;2.80;99.90
8067;DHT22;4076;48.076;9.118;2023-01-10T07:56:23;2.90;99.90
8067;DHT22;4076;48.076;9.118;2023-01-10T07:58:49;2.80;99.90
8067;DHT22;4076;48.076;9.118;2023-01-10T08:01:14;2.80;99.90
8067;DHT22;4076;48.076;9.118;2023-01-10T08:03:40;2.70;99.90
8067;DHT22;4076;48.076;9.118;2023-01-10T08:06:08;2.70;99.90
8067;DHT22;4076;48.076;9.118;2023-01-10T08:08:37;2.70;99.90
8067;DHT22;4076;48.076;9.118;2023-01-10T08:11:03;2.70;99.90
8067;DHT22;4076;48.076;9.118;2023-01-10T08:13:30;2.60;99.90
8067;DHT22;4076;48.076;9.118;2023-01-10T08:15:56;2.70;99.90
8067;DHT22;4076;48.076;9.118;2023-01-10T08:18:23;2.70;99.90
8067;DHT22;4076;48.076;9.118;2023-01-10T08:20:50;2.70;99.90
8067;DHT22;4076;48.076;9.118;2023-01-10T08:23:16;2.70;99.90
8067;DHT22;4076;48.076;9.118;2023-01-10T08:25:42;2.70;99.90
8067;DHT22;4076;48.076;9.118;2023-01-10T08:28:07;2.70;99.90
8067;DHT22;4076;48.076;9.118;2023-01-10T08:30:33;2.70;99.90
8067;DHT22;4076;48.076;9.118;2023-01-10T08:33:02;2.70;99.90
8067;DHT22;4076;48.076;9.118;2023-01-10T08:35:28;2.70;99.90
8067;DHT22;4076;48.076;9.118;2023-01-10T08:37:57;2.70;99.90
8067;DHT22;4076;48.076;9.118;2023-01-10T08:40:24;2.70;99.90
8067;DHT22;4076;48.076;9.118;2023-01-10T08:42:59;2.70;99.90
8067;DHT22;4076;48.076;9.118;2023-01-10T08:45:24;2.90;99.90
8067;DHT22;4076;48.076;9.118;2023-01-10T08:47:50;3.20;99.90
8067;DHT22;4076;48.076;9.118;2023-01-10T08:50:15;3.30;99.90
8067;DHT22;4076;48.076;9.118;2023-01-10T08:52:41;3.50;99.90
8067;DHT22;4076;48.076;9.118;2023-01-10T08:55:07;3.60;99.90
8067;DHT22;4076;48.076;9.118;2023-01-10T08:57:32;3.80;99.90
8067;DHT22;4076;48.076;9.118;2023-01-10T08:59:58;3.90;99.90
8067;DHT22;4076;48.076;9.118;2023-01-10T09:02:23;4.00;99.90
8067;DHT22;4076;48.076;9.118;2023-01-10T09:04:49;4.10;99.90
8067;DHT22;4076;48.076;9.118;2023-01-10T09:07:15;4.20;99.90
8067;DHT22;4076;48.076;9.118;2023-01-10T09:09:40;4.40;99.90
8067;DHT22;4076;48.076;9.118;2023-01-10T09:12:06;4.60;99.90
8067;DHT22;4076;48.076;9.118;2023-01-10T09:14:51;4.70;99.90
8067;DHT22;4076;48.076;9.118;2023-01-10T09:17:17;4.90;99.90
8067;DHT22;4076;48.076;9.118;2023-01-10T09:19:43;4.90;99.90
8067;DHT22;4076;48.076;9.118;2023-01-10T09:22:08;5.00;99.90
8067;DHT22;4076;48.076;9.118;2023-01-10T09:24:34;5.10;99.90
8067;DHT22;4076;48.076;9.118;2023-01-10T09:27:02;5.10;99.90
8067;DHT22;4076;48.076;9.118;2023-01-10T09:29:27;5.30;99.90
8067;DHT22;4076;48.076;9.118;2023-01-10T09:31:53;5.60;99.90
8067;DHT22;4076;48.076;9.118;2023-01-10T09:34:18;5.70;99.90
8067;DHT22;4076;48.076;9.118;2023-01-10T09:36:44;5.70;99.90
8067;DHT22;4076;48.076;9.118;2023-01-10T09:39:09;5.70;99.90
8067;DHT22;4076;48.076;9.118;2023-01-10T09:50:24;4.90;99.90
8067;DHT22;4076;48.076;9.118;2023-01-10T09:52:57;4.60;99.90
8067;DHT22;4076;48.076;9.118;2023-01-10T09:55:30;4.40;99.90
8067;DHT22;4076;48.076;9.118;2023-01-10T09:57:59;4.30;99.90
8067;DHT22;4076;48.076;9.118;2023-01-10T10:00:53;4.60;99.90
8067;DHT22;4076;48.076;9.118;2023-01-10T10:03:30;4.30;99.90
8067;DHT22;4076;48.076;9.118;2023-01-10T10:05:57;4.40;99.90
8067;DHT22;4076;48.076;9.118;2023-01-10T10:08:23;4.40;99.90
8067;DHT22;4076;48.076;9.118;2023-01-10T10:16:01;4.70;99.90
8067;DHT22;4076;48.076;9.118;2023-01-10T10:18:54;4.80;99.90
8067;DHT22;4076;48.076;9.118;2023-01-10T10:21:42;5.00;99.90
8067;DHT22;4076;48.076;9.118;2023-01-10T10:24:36;5.20;99.90
8067;DHT22;4076;48.076;9.118;2023-01-10T10:29:43;5.50;99.90
8067;DHT22;4076;48.076;9.118;2023-01-10T10:32:43;5.70;99.90
8067;DHT22;4076;48.076;9.118;2023-01-10T10:35:25;5.80;99.90
8067;DHT22;4076;48.076;9.118;2023-01-10T10:37:53;6.00;99.90
8067;DHT22;4076;48.076;9.118;2023-01-10T10:40:23;6.20;99.90
8067;DHT22;4076;48.076;9.118;2023-01-10T10:42:52;6.40;99.90
8067;DHT22;4076;48.076;9.118;2023-01-10T10:48:05;6.80;99.90
8067;DHT22;4076;48.076;9.118;2023-01-10T10:50:39;7.10;99.90
8067;DHT22;4076;48.076;9.118;2023-01-10T10:53:11;7.60;99.90
8067;DHT22;4076;48.076;9.118;2023-01-10T10:55:37;7.90;99.90
8067;DHT22;4076;48.076;9.118;2023-01-10T10:58:04;8.00;99.90
8067;DHT22;4076;48.076;9.118;2023-01-10T11:00:31;7.90;99.90
8067;DHT22;4076;48.076;9.118;2023-01-10T11:03:19;7.80;99.90
8067;DHT22;4076;48.076;9.118;2023-01-10T11:05:46;7.80;99.90
8067;DHT22;4076;48.076;9.118;2023-01-10T11:08:14;8.00;99.90
8067;DHT22;4076;48.076;9.118;2023-01-10T11:10:56;8.20;99.90
8067;DHT22;4076;48.076;9.118;2023-01-10T11:16:05;9.80;99.90
8067;DHT22;4076;48.076;9.118;2023-01-10T11:18:32;10.30;99.90
8067;DHT22;4076;48.076;9.118;2023-01-10T11:21:12;10.70;99.90
8067;DHT22;4076;48.076;9.118;2023-01-10T11:23:55;11.30;99.90
8067;DHT22;4076;48.076;9.118;2023-01-10T11:31:32;14.10;92.10
8067;DHT22;4076;48.076;9.118;2023-01-10T11:34:00;15.40;77.00
8067;DHT22;4076;48.076;9.118;2023-01-10T11:39:34;18.20;52.50
8067;DHT22;4076;48.076;9.118;2023-01-10T11:42:28;19.40;48.60
8067;DHT22;4076;48.076;9.118;2023-01-10T11:44:55;19.60;46.10
8067;DHT22;4076;48.076;9.118;2023-01-10T11:47:39;18.60;44.40
8067;DHT22;4076;48.076;9.118;2023-01-10T11:50:09;17.00;45.20
8067;DHT22;4076;48.076;9.118;2023-01-10T11:52:35;16.10;47.10
8067;DHT22;4076;48.076;9.118;2023-01-10T11:55:06;15.20;46.40
8067;DHT22;4076;48.076;9.118;2023-01-10T11:57:32;15.60;47.80
8067;DHT22;4076;48.076;9.118;2023-01-10T12:00:01;16.40;47.50
8067;DHT22;4076;48.076;9.118;2023-01-10T12:02:33;16.90;45.30
8067;DHT22;4076;48.076;9.118;2023-01-10T12:05:02;16.40;44.10
8067;DHT22;4076;48.076;9.118;2023-01-10T12:07:29;15.40;44.40
8067;DHT22;4076;48.076;9.118;2023-01-10T12:12:26;13.70;44.80
8067;DHT22;4076;48.076;9.118;2023-01-10T12:14:53;13.00;44.90
8067;DHT22;4076;48.076;9.118;2023-01-10T12:17:29;12.00;45.10
8067;DHT22;4076;48.076;9.118;2023-01-10T12:19:57;11.20;46.80
8067;DHT22;4076;48.076;9.118;2023-01-10T12:22:41;10.40;48.20
8067;DHT22;4076;48.076;9.118;2023-01-10T12:25:21;9.80;51.70
8067;DHT22;4076;48.076;9.118;2023-01-10T12:27:49;9.30;50.40
8067;DHT22;4076;48.076;9.118;2023-01-10T12:30:38;9.00;50.70
8067;DHT22;4076;48.076;9.118;2023-01-10T12:33:15;8.60;51.40
8067;DHT22;4076;48.076;9.118;2023-01-10T12:35:53;8.30;51.50
8067;DHT22;4076;48.076;9.118;2023-01-10T12:41:32;8.10;53.60
8067;DHT22;4076;48.076;9.118;2023-01-10T12:44:22;8.10;53.30
8067;DHT22;4076;48.076;9.118;2023-01-10T12:47:08;8.00;53.90
8067;DHT22;4076;48.076;9.118;2023-01-10T12:49:55;8.00;55.60
8067;DHT22;4076;48.076;9.118;2023-01-10T12:52:49;7.90;55.20
8067;DHT22;4076;48.076;9.118;2023-01-10T12:55:19;7.80;55.30
8067;DHT22;4076;48.076;9.118;2023-01-10T12:57:50;7.70;55.10
8067;DHT22;4076;48.076;9.118;2023-01-10T13:00:20;7.60;55.50
8067;DHT22;4076;48.076;9.118;2023-01-10T13:02:47;7.70;55.90
8067;DHT22;4076;48.076;9.118;2023-01-10T13:05:25;7.90;55.80
8067;DHT22;4076;48.076;9.118;2023-01-10T13:07:55;8.20;56.10
8067;DHT22;4076;48.076;9.118;2023-01-10T13:10:23;8.40;56.10
8067;DHT22;4076;48.076;9.118;2023-01-10T13:15:47;8.50;55.40
8067;DHT22;4076;48.076;9.118;2023-01-10T13:18:24;8.30;55.50
8067;DHT22;4076;48.076;9.118;2023-01-10T13:21:04;8.10;55.60
8067;DHT22;4076;48.076;9.118;2023-01-10T13:23:34;7.90;55.70
8067;DHT22;4076;48.076;9.118;2023-01-10T13:26:06;7.60;56.20
8067;DHT22;4076;48.076;9.118;2023-01-10T13:28:41;7.30;56.50
8067;DHT22;4076;48.076;9.118;2023-01-10T13:31:24;7.10;57.20
8067;DHT22;4076;48.076;9.118;2023-01-10T13:33:54;7.20;57.30
8067;DHT22;4076;48.076;9.118;2023-01-10T13:36:24;7.30;58.00
8067;DHT22;4076;48.076;9.118;2023-01-10T13:38:58;7.40;58.10
8067;DHT22;4076;48.076;9.118;2023-01-10T13:52:54;7.30;58.40
8067;DHT22;4076;48.076;9.118;2023-01-10T14:11:53;6.50;59.10
8067;DHT22;4076;48.076;9.118;2023-01-10T14:14:23;6.50;59.20
8067;DHT22;4076;48.076;9.118;2023-01-10T14:17:09;6.60;59.50
8067;DHT22;4076;48.076;9.118;2023-01-10T14:19:35;6.70;59.90
8067;DHT22;4076;48.076;9.118;2023-01-10T14:22:02;6.70;59.70
8067;DHT22;4076;48.076;9.118;2023-01-10T14:24:39;6.70;59.70
8067;DHT22;4076;48.076;9.118;2023-01-10T14:27:11;6.60;59.70
8067;DHT22;4076;48.076;9.118;2023-01-10T14:29:38;6.60;59.30
8067;DHT22;4076;48.076;9.118;2023-01-10T14:32:23;6.60;59.30
8067;DHT22;4076;48.076;9.118;2023-01-10T14:34:52;6.50;58.30
8067;DHT22;4076;48.076;9.118;2023-01-10T14:37:42;6.40;59.30
8067;DHT22;4076;48.076;9.118;2023-01-10T14:40:28;6.20;58.80
8067;DHT22;4076;48.076;9.118;2023-01-10T14:42:55;6.10;59.60
8067;DHT22;4076;48.076;9.118;2023-01-10T14:45:37;6.10;59.70
8067;DHT22;4076;48.076;9.118;2023-01-10T14:49:14;6.00;59.60
8067;DHT22;4076;48.076;9.118;2023-01-10T14:51:26;5.80;59.20
8067;DHT22;4076;48.076;9.118;2023-01-10T14:53:59;5.60;60.10
8067;DHT22;4076;48.076;9.118;2023-01-10T14:56:43;5.50;60.70
8067;DHT22;4076;48.076;9.118;2023-01-10T15:01:54;5.20;61.20
8067;DHT22;4076;48.076;9.118;2023-01-10T15:04:22;5.10;62.00
8067;DHT22;4076;48.076;9.118;2023-01-10T15:07:00;5.00;62.50
8067;DHT22;4076;48.076;9.118;2023-01-10T15:09:29;4.90;62.60
8067;DHT22;4076;48.076;9.118;2023-01-10T15:11:58;4.80;63.80
8067;DHT22;4076;48.076;9.118;2023-01-10T15:14:25;4.60;64.40
8067;DHT22;4076;48.076;9.118;2023-01-10T15:16:57;4.60;64.80
8067;DHT22;4076;48.076;9.118;2023-01-10T15:19:29;4.50;64.40
8067;DHT22;4076;48.076;9.118;2023-01-10T15:21:56;4.40;65.90
8067;DHT22;4076;48.076;9.118;2023-01-10T15:24:33;4.30;65.50
8067;DHT22;4076;48.076;9.118;2023-01-10T15:27:04;4.30;67.40
8067;DHT22;4076;48.076;9.118;2023-01-10T15:29:32;4.20;69.40
8067;DHT22;4076;48.076;9.118;2023-01-10T15:32:08;4.10;69.20
8067;DHT22;4076;48.076;9.118;2023-01-10T15:34:35;4.00;70.20
8067;DHT22;4076;48.076;9.118;2023-01-10T15:37:02;4.00;69.00
8067;DHT22;4076;48.076;9.118;2023-01-10T15:39:30;3.90;69.90
8067;DHT22;4076;48.076;9.118;2023-01-10T15:42:00;3.80;69.70
8067;DHT22;4076;48.076;9.118;2023-01-10T15:47:04;3.50;75.30
8067;DHT22;4076;48.076;9.118;2023-01-10T15:49:30;3.30;77.80
8067;DHT22;4076;48.076;9.118;2023-01-10T15:51:58;3.20;79.00
8067;DHT22;4076;48.076;9.118;2023-01-10T15:56:59;3.10;78.70
8067;DHT22;4076;48.076;9.118;2023-01-10T15:59:45;3.00;80.80
8067;DHT22;4076;48.076;9.118;2023-01-10T16:02:15;3.00;83.40
8067;DHT22;4076;48.076;9.118;2023-01-10T16:04:42;3.00;88.90
8067;DHT22;4076;48.076;9.118;2023-01-10T16:07:41;2.90;90.60
8067;DHT22;4076;48.076;9.118;2023-01-10T16:10:21;2.80;92.20
8067;DHT22;4076;48.076;9.118;2023-01-10T16:12:48;2.80;92.90
8067;DHT22;4076;48.076;9.118;2023-01-10T16:15:34;2.80;93.00
8067;DHT22;4076;48.076;9.118;2023-01-10T16:18:00;2.70;93.30
8067;DHT22;4076;48.076;9.118;2023-01-10T16:20:30;2.70;94.50
8067;DHT22;4076;48.076;9.118;2023-01-10T16:22:56;2.60;95.00
8067;DHT22;4076;48.076;9.118;2023-01-10T16:25:33;2.60;96.90
8067;DHT22;4076;48.076;9.118;2023-01-10T16:27:59;2.50;98.30
8067;DHT22;4076;48.076;9.118;2023-01-10T16:30:33;2.40;99.90
8067;DHT22;4076;48.076;9.118;2023-01-10T16:33:07;2.30;99.90
8067;DHT22;4076;48.076;9.118;2023-01-10T16:35:33;2.20;99.90
8067;DHT22;4076;48.076;9.118;2023-01-10T16:37:59;2.10;99.90
8067;DHT22;4076;48.076;9.118;2023-01-10T16:40:37;2.00;99.90
8067;DHT22;4076;48.076;9.118;2023-01-10T16:43:03;2.00;99.90
8067;DHT22;4076;48.076;9.118;2023-01-10T16:45:54;2.00;99.90
8067;DHT22;4076;48.076;9.118;2023-01-10T16:48:26;1.90;99.90
8067;DHT22;4076;48.076;9.118;2023-01-10T16:50:52;1.80;99.90
8067;DHT22;4076;48.076;9.118;2023-01-10T16:53:19;1.80;99.90
8067;DHT22;4076;48.076;9.118;2023-01-10T16:55:47;1.70;99.90
8067;DHT22;4076;48.076;9.118;2023-01-10T16:58:15;1.70;99.90
8067;DHT22;4076;48.076;9.118;2023-01-10T17:00:43;1.60;99.90
8067;DHT22;4076;48.076;9.118;2023-01-10T17:03:22;1.50;99.90
8067;DHT22;4076;48.076;9.118;2023-01-10T17:05:48;1.40;99.90
8067;DHT22;4076;48.076;9.118;2023-01-10T17:08:17;1.40;99.90
8067;DHT22;4076;48.076;9.118;2023-01-10T17:10:44;1.30;99.90
8067;DHT22;4076;48.076;9.118;2023-01-10T17:13:11;1.30;99.90
8067;DHT22;4076;48.076;9.118;2023-01-10T17:15:38;1.20;99.90
8067;DHT22;4076;48.076;9.118;2023-01-10T17:18:03;1.20;99.90
8067;DHT22;4076;48.076;9.118;2023-01-10T17:20:29;1.20;99.90
8067;DHT22;4076;48.076;9.118;2023-01-10T17:22:56;1.10;99.90
8067;DHT22;4076;48.076;9.118;2023-01-10T17:25:22;1.10;99.90
8067;DHT22;4076;48.076;9.118;2023-01-10T17:27:47;1.00;99.90
8067;DHT22;4076;48.076;9.118;2023-01-10T17:30:14;1.00;99.90
8067;DHT22;4076;48.076;9.118;2023-01-10T17:32:40;1.00;99.90
8067;DHT22;4076;48.076;9.118;2023-01-10T17:35:06;1.00;99.90
8067;DHT22;4076;48.076;9.118;2023-01-10T17:37:32;1.00;99.90
8067;DHT22;4076;48.076;9.118;2023-01-10T17:39:58;1.00;99.90
8067;DHT22;4076;48.076;9.118;2023-01-10T17:42:23;1.00;99.90
8067;DHT22;4076;48.076;9.118;2023-01-10T17:44:49;1.00;99.90
8067;DHT22;4076;48.076;9.118;2023-01-10T17:47:14;1.00;99.90
8067;DHT22;4076;48.076;9.118;2023-01-10T17:49:40;0.90;99.90
8067;DHT22;4076;48.076;9.118;2023-01-10T17:52:08;0.90;99.90
8067;DHT22;4076;48.076;9.118;2023-01-10T17:54:34;0.90;99.90
8067;DHT22;4076;48.076;9.118;2023-01-10T17:57:02;0.90;99.90
8067;DHT22;4076;48.076;9.118;2023-01-10T17:59:28;0.80;99.90
8067;DHT22;4076;48.076;9.118;2023-01-10T18:01:53;0.90;99.90
8067;DHT22;4076;48.076;9.118;2023-01-10T18:04:19;0.80;99.90
8067;DHT22;4076;48.076;9.118;2023-01-10T18:06:45;0.80;99.90
8067;DHT22;4076;48.076;9.118;2023-01-10T18:09:10;0.70;99.90
8067;DHT22;4076;48.076;9.118;2023-01-10T18:11:36;0.70;99.90
8067;DHT22;4076;48.076;9.118;2023-01-10T18:14:02;0.70;99.90
8067;DHT22;4076;48.076;9.118;2023-01-10T18:16:48;0.60;99.90
8067;DHT22;4076;48.076;9.118;2023-01-10T18:19:14;0.60;99.90
8067;DHT22;4076;48.076;9.118;2023-01-10T18:21:39;0.50;99.90
8067;DHT22;4076;48.076;9.118;2023-01-10T18:24:05;0.50;99.90